Time;durP1;ratioP1;P1;durP2;ratioP2;P2;SDS_P1;SDS_P2;PMS_P1;PMS_P2;Temp;Humidity;BMP_temperature;BMP_pressure;BME280_temperature;BME280_humidity;BME280_pressure;Samples;Min_cycle;Max_cycle;Signal;HPM_P1;HPM_P2
2022/08/29 00:02:14;;;;;;;0.30;0.30;;;;;;;13.86;67.42;100920.41;5127349;28;20026;-70
2022/08/29 00:04:39;;;;;;;0.30;0.30;;;;;;;13.84;67.35;100919.56;5127330;28;20024;-69
2022/08/29 00:07:05;;;;;;;0.30;0.30;;;;;;;13.86;67.05;100921.28;5127171;28;20083;-70
2022/08/29 00:09:30;;;;;;;0.40;0.40;;;;;;;13.86;67.21;100926.50;5127193;28;20040;-69
2022/08/29 00:11:56;;;;;;;0.30;0.30;;;;;;;13.90;67.10;100923.84;5127134;28;20083;-71
2022/08/29 00:14:21;;;;;;;0.30;0.30;;;;;;;13.88;67.15;100943.00;5127379;28;20012;-70
2022/08/29 00:16:46;;;;;;;0.30;0.30;;;;;;;13.93;66.96;100929.03;5127172;28;20024;-70
2022/08/29 00:19:12;;;;;;;0.30;0.30;;;;;;;13.97;66.56;100930.69;5127554;28;20069;-69
2022/08/29 00:21:37;;;;;;;0.30;0.30;;;;;;;13.94;66.41;100934.22;5127131;28;20030;-70
2022/08/29 00:24:03;;;;;;;0.55;0.55;;;;;;;13.84;66.53;100923.06;5127621;28;20076;-70
2022/08/29 00:26:28;;;;;;;0.30;0.30;;;;;;;13.89;66.34;100936.03;5126610;28;20024;-70
2022/08/29 00:28:53;;;;;;;0.30;0.30;;;;;;;13.91;66.49;100947.31;5126787;28;20105;-71
2022/08/29 00:31:19;;;;;;;0.38;0.38;;;;;;;13.87;66.50;100940.41;5126748;28;20038;-68
2022/08/29 00:33:45;;;;;;;0.32;0.32;;;;;;;13.88;66.23;100952.59;5126612;28;20020;-69
2022/08/29 00:36:10;;;;;;;0.30;0.30;;;;;;;13.88;66.14;100949.97;5126028;28;20020;-69
2022/08/29 00:38:36;;;;;;;0.30;0.30;;;;;;;13.85;66.44;100950.03;5108226;28;20178;-69
2022/08/29 00:41:02;;;;;;;0.30;0.30;;;;;;;13.81;66.46;100951.81;5126449;28;20157;-69
2022/08/29 00:43:31;;;;;;;0.30;0.30;;;;;;;13.79;66.28;100964.00;5108094;28;20028;-69
2022/08/29 00:46:25;;;;;;;0.32;0.32;;;;;;;13.76;66.63;100961.44;5125883;28;20100;-70
2022/08/29 00:48:57;;;;;;;0.30;0.30;;;;;;;13.74;66.21;100956.22;5107395;28;20024;-69
2022/08/29 00:51:23;;;;;;;0.40;0.40;;;;;;;13.74;66.17;100960.56;5125970;28;20102;-69
2022/08/29 00:53:58;;;;;;;0.30;0.30;;;;;;;13.71;66.45;100955.41;5126447;28;20019;-70
2022/08/29 00:56:23;;;;;;;0.40;0.40;;;;;;;13.67;66.46;100957.19;5126119;28;20015;-69
2022/08/29 00:58:54;;;;;;;0.40;0.40;;;;;;;13.65;66.57;100963.31;5126040;28;20030;-69
2022/08/29 01:01:20;;;;;;;0.30;0.30;;;;;;;13.58;66.57;100955.56;5126238;28;20031;-69
2022/08/29 01:03:47;;;;;;;0.30;0.30;;;;;;;13.56;66.72;100967.75;5126036;28;20024;-70
2022/08/29 01:06:12;;;;;;;0.30;0.30;;;;;;;13.52;66.71;100966.06;5107235;28;20023;-70
2022/08/29 01:08:38;;;;;;;0.30;0.30;;;;;;;13.51;66.70;100962.59;5126181;28;20053;-70
2022/08/29 01:13:52;;;;;;;0.30;0.30;;;;;;;13.50;66.59;100980.81;5126105;28;20540;-70
2022/08/29 01:16:20;;;;;;;0.30;0.30;;;;;;;13.46;66.62;100976.53;5107417;28;20044;-70
2022/08/29 01:18:50;;;;;;;0.30;0.30;;;;;;;13.44;66.84;100978.28;5126023;28;20055;-70
2022/08/29 01:21:27;;;;;;;0.40;0.40;;;;;;;13.47;66.76;100973.03;5125890;28;20023;-70
2022/08/29 01:24:05;;;;;;;0.30;0.30;;;;;;;13.46;66.79;100969.59;5107640;28;20020;-70
2022/08/29 01:26:32;;;;;;;0.40;0.40;;;;;;;13.47;66.70;100973.91;5125669;28;20043;-70
2022/08/29 01:28:58;;;;;;;0.30;0.30;;;;;;;13.46;66.82;100984.38;5107769;28;20047;-70
2022/08/29 01:31:36;;;;;;;0.30;0.30;;;;;;;13.44;66.91;100983.50;5125873;28;20475;-70
2022/08/29 01:34:01;;;;;;;0.30;0.30;;;;;;;13.49;66.75;100994.75;5126036;28;20031;-70
2022/08/29 01:36:34;;;;;;;0.30;0.30;;;;;;;13.47;66.90;100994.78;5125352;28;20038;-70
2022/08/29 01:39:00;;;;;;;0.40;0.40;;;;;;;13.57;66.67;100997.31;5125943;28;20028;-70
2022/08/29 01:41:26;;;;;;;0.30;0.30;;;;;;;13.53;66.94;101009.53;5125679;28;20023;-70
2022/08/29 01:43:55;;;;;;;0.30;0.30;;;;;;;13.48;66.97;101009.53;5107660;28;20020;-70
2022/08/29 01:46:29;;;;;;;0.35;0.35;;;;;;;13.47;67.08;101001.72;5125498;28;20039;-70
2022/08/29 01:48:55;;;;;;;0.30;0.30;;;;;;;13.46;67.34;101018.28;5107408;28;20028;-70
2022/08/29 01:51:21;;;;;;;0.30;0.30;;;;;;;13.42;67.53;101022.66;5125543;28;20045;-72
2022/08/29 01:53:46;;;;;;;0.50;0.50;;;;;;;13.45;67.49;101016.56;5107380;28;20049;-70
2022/08/29 01:56:14;;;;;;;0.30;0.30;;;;;;;13.46;67.31;101019.16;5125408;28;20047;-70
2022/08/29 01:58:44;;;;;;;0.40;0.40;;;;;;;13.47;67.37;101023.47;5125528;28;20028;-70
2022/08/29 02:01:10;;;;;;;0.40;0.40;;;;;;;13.46;67.64;101010.44;5107402;28;20016;-70
2022/08/29 02:03:37;;;;;;;0.30;0.30;;;;;;;13.48;67.29;101011.31;5127959;28;20035;-69
2022/08/29 02:06:03;;;;;;;0.30;0.30;;;;;;;13.46;67.35;101019.16;5129318;28;20027;-69
2022/08/29 02:08:29;;;;;;;0.30;0.30;;;;;;;13.46;67.13;101023.50;5129562;28;20023;-70
2022/08/29 02:10:55;;;;;;;0.40;0.40;;;;;;;13.43;67.37;101019.19;5111022;28;20024;-69
2022/08/29 02:13:23;;;;;;;0.20;0.20;;;;;;;13.43;67.25;101029.63;5129457;28;20025;-69
2022/08/29 02:15:49;;;;;;;0.30;0.30;;;;;;;13.41;67.25;101030.50;5111089;28;20020;-69
2022/08/29 02:18:14;;;;;;;0.40;0.40;;;;;;;13.31;67.49;101020.16;5129261;28;20035;-70
2022/08/29 02:20:40;;;;;;;0.30;0.30;;;;;;;13.35;67.39;101031.44;5129207;28;20020;-70
2022/08/29 02:23:05;;;;;;;0.30;0.30;;;;;;;13.24;67.78;101032.38;5129167;28;20024;-70
2022/08/29 02:25:43;;;;;;;0.30;0.30;;;;;;;13.26;67.83;101037.56;5129186;28;20116;-70
2022/08/29 02:28:12;;;;;;;0.30;0.30;;;;;;;13.24;67.86;101045.41;5129169;28;20061;-70
2022/08/29 02:30:39;;;;;;;0.30;0.30;;;;;;;13.22;67.95;101041.09;5129187;28;20108;-70
2022/08/29 02:33:06;;;;;;;0.30;0.30;;;;;;;13.18;68.01;101050.69;5128960;28;20080;-70
2022/08/29 02:35:32;;;;;;;0.30;0.30;;;;;;;13.19;67.98;101047.22;5128729;28;20020;-70
2022/08/29 02:37:57;;;;;;;0.30;0.30;;;;;;;13.19;67.91;101048.97;5128848;28;20016;-70
2022/08/29 02:40:25;;;;;;;0.30;0.30;;;;;;;13.19;67.86;101043.75;5128818;28;20035;-71
2022/08/29 02:42:52;;;;;;;0.30;0.30;;;;;;;13.16;67.71;101051.59;5128686;28;20020;-70
2022/08/29 02:45:18;;;;;;;0.30;0.30;;;;;;;13.16;67.96;101056.81;5128853;28;20057;-69
2022/08/29 02:47:44;;;;;;;0.52;0.52;;;;;;;13.06;67.89;101051.69;5110383;28;20040;-69
2022/08/29 02:50:10;;;;;;;0.30;0.30;;;;;;;13.06;67.85;101051.69;5128696;28;20046;-70
2022/08/29 02:52:41;;;;;;;0.30;0.30;;;;;;;13.07;67.73;101042.09;5128747;28;20027;-69
2022/08/29 02:55:08;;;;;;;0.30;0.30;;;;;;;13.06;67.76;101058.63;5128933;28;20020;-70
2022/08/29 02:57:34;;;;;;;0.40;0.40;;;;;;;13.02;68.16;101060.38;5128496;28;20027;-70
2022/08/29 02:59:59;;;;;;;0.30;0.30;;;;;;;12.97;67.96;101057.81;5128654;28;20374;-70
2022/08/29 03:02:24;;;;;;;0.30;0.30;;;;;;;12.96;68.17;101055.22;5128248;28;20015;-69
2022/08/29 03:04:50;;;;;;;0.30;0.30;;;;;;;12.91;68.04;101051.81;5128410;28;20392;-69
2022/08/29 03:07:15;;;;;;;0.50;0.50;;;;;;;12.88;68.16;101060.50;5128221;28;20083;-70
2022/08/29 03:09:41;;;;;;;0.30;0.30;;;;;;;12.81;68.58;101062.28;5128413;28;20116;-69
2022/08/29 03:12:07;;;;;;;0.22;0.22;;;;;;;12.79;68.69;101066.66;5128337;28;20088;-69
2022/08/29 03:14:32;;;;;;;0.30;0.30;;;;;;;12.70;68.66;101048.47;5109636;28;20047;-70
2022/08/29 03:16:57;;;;;;;0.30;0.30;;;;;;;12.71;68.92;101068.44;5128155;28;20097;-70
2022/08/29 03:19:23;;;;;;;0.30;0.30;;;;;;;12.64;69.09;101057.19;5128234;28;20032;-69
2022/08/29 03:21:49;;;;;;;0.30;0.30;;;;;;;12.60;69.22;101065.91;5128089;28;20034;-69
2022/08/29 03:24:14;;;;;;;0.30;0.30;;;;;;;12.58;69.15;101071.13;5109693;28;20030;-70
2022/08/29 03:26:39;;;;;;;0.30;0.30;;;;;;;12.57;69.12;101073.75;5127884;28;20027;-70
2022/08/29 03:29:05;;;;;;;0.40;0.40;;;;;;;12.54;69.28;101077.22;5127943;28;20028;-69
2022/08/29 03:31:31;;;;;;;0.30;0.30;;;;;;;12.53;69.50;101085.91;5127738;28;20020;-70
2022/08/29 03:33:56;;;;;;;0.30;0.30;;;;;;;12.50;69.27;101075.50;5127930;28;20012;-70
2022/08/29 03:36:25;;;;;;;0.30;0.30;;;;;;;12.46;69.44;101084.22;5127612;28;20054;-70
2022/08/29 03:38:51;;;;;;;0.30;0.30;;;;;;;12.44;69.53;101086.84;5127834;28;20098;-71
2022/08/29 03:41:22;;;;;;;0.40;0.40;;;;;;;12.39;69.29;101081.66;5109532;28;20023;-71
2022/08/29 03:43:48;;;;;;;0.40;0.40;;;;;;;12.35;69.51;101084.25;5127807;28;20098;-70
2022/08/29 03:46:13;;;;;;;0.30;0.30;;;;;;;12.38;69.52;101092.09;5127619;28;20108;-70
2022/08/29 03:48:39;;;;;;;0.40;0.40;;;;;;;12.40;69.47;101090.31;5127539;28;20078;-71
2022/08/29 03:51:04;;;;;;;0.40;0.40;;;;;;;12.36;69.44;101097.25;5127508;28;20024;-70
2022/08/29 03:53:31;;;;;;;0.30;0.30;;;;;;;12.36;69.36;101097.25;5127646;28;20020;-71
2022/08/29 03:55:57;;;;;;;0.40;0.40;;;;;;;12.35;69.46;101105.97;5127646;28;20049;-71
2022/08/29 03:58:22;;;;;;;0.40;0.40;;;;;;;12.36;69.26;101106.84;5127240;28;20024;-71
2022/08/29 04:00:48;;;;;;;0.40;0.40;;;;;;;12.33;69.45;101106.84;5127468;28;20107;-72
2022/08/29 04:03:13;;;;;;;0.30;0.30;;;;;;;12.28;69.50;101101.66;5127328;28;20045;-71
2022/08/29 04:05:38;;;;;;;0.40;0.40;;;;;;;12.32;69.39;101112.91;5108753;28;20019;-70
2022/08/29 04:08:07;;;;;;;0.40;0.40;;;;;;;12.33;69.13;101101.66;5127323;28;20035;-70
2022/08/29 04:10:36;;;;;;;0.40;0.40;;;;;;;12.31;69.07;101104.25;5108843;28;20023;-70
2022/08/29 04:13:03;;;;;;;0.32;0.32;;;;;;;12.31;68.97;101109.47;5127081;28;20019;-72
2022/08/29 04:15:31;;;;;;;0.40;0.40;;;;;;;12.30;68.95;101106.88;5127205;28;20055;-72
2022/08/29 04:17:58;;;;;;;0.30;0.30;;;;;;;12.27;68.97;101107.72;5127051;28;20054;-73
2022/08/29 04:20:28;;;;;;;0.40;0.40;;;;;;;12.29;68.91;101116.41;5127062;28;20016;-73
2022/08/29 04:22:55;;;;;;;0.40;0.40;;;;;;;12.26;68.94;101114.69;5127041;28;20045;-71
2022/08/29 04:25:24;;;;;;;0.30;0.30;;;;;;;12.29;68.79;101125.94;5126603;28;20465;-71
2022/08/29 04:27:50;;;;;;;0.40;0.40;;;;;;;12.30;68.91;101128.53;5108373;28;20024;-70
2022/08/29 04:30:18;;;;;;;0.30;0.30;;;;;;;12.25;69.05;101132.91;5126802;28;20030;-69
2022/08/29 04:32:43;;;;;;;0.30;0.30;;;;;;;12.42;69.31;101138.06;5126738;28;20022;-70
2022/08/29 04:35:12;;;;;;;0.30;0.30;;;;;;;12.71;69.36;101131.84;5126580;28;20016;-70
2022/08/29 04:37:39;;;;;;;0.40;0.40;;;;;;;13.07;69.51;101136.81;5126639;28;20087;-71
2022/08/29 04:40:09;;;;;;;0.40;0.40;;;;;;;13.55;69.73;101147.75;5126682;28;20498;-72
2022/08/29 04:42:38;;;;;;;0.30;0.30;;;;;;;13.93;69.36;101137.84;5126627;28;20040;-68
2022/08/29 04:45:11;;;;;;;0.30;0.30;;;;;;;14.28;68.75;101139.16;5126590;28;20039;-70
2022/08/29 04:47:37;;;;;;;0.40;0.40;;;;;;;14.52;67.37;101149.34;5126619;28;20081;-69
2022/08/29 04:50:04;;;;;;;0.20;0.20;;;;;;;14.71;66.04;101139.50;5126784;28;20024;-70
2022/08/29 04:52:32;;;;;;;0.30;0.30;;;;;;;14.90;66.14;101136.66;5126474;28;20031;-69
2022/08/29 04:54:58;;;;;;;0.30;0.30;;;;;;;15.19;65.42;101144.03;5108180;28;20019;-71
2022/08/29 04:57:24;;;;;;;5.95;1.80;;;;;;;15.40;65.00;101149.81;5126169;28;20068;-71
2022/08/29 04:59:57;;;;;;;0.30;0.30;;;;;;;15.59;64.33;101150.38;5126714;28;20081;-73
2022/08/29 05:02:26;;;;;;;0.30;0.30;;;;;;;15.74;63.98;101144.00;5126261;28;20027;-75
2022/08/29 05:04:52;;;;;;;0.35;0.35;;;;;;;15.88;62.80;101144.66;5126148;28;20038;-71
2022/08/29 05:07:19;;;;;;;0.30;0.30;;;;;;;16.08;62.35;101142.53;5126135;28;20464;-71
2022/08/29 05:09:48;;;;;;;0.30;0.30;;;;;;;16.23;62.23;101143.09;5126319;28;20436;-74
2022/08/29 05:12:18;;;;;;;0.30;0.30;;;;;;;16.51;61.20;101147.78;5126248;28;20091;-74
2022/08/29 05:14:46;;;;;;;0.30;0.30;;;;;;;16.63;60.40;101149.25;5126815;28;20020;-73
2022/08/29 05:17:13;;;;;;;0.22;0.22;;;;;;;16.73;59.83;101142.94;5108146;28;20106;-71
2022/08/29 05:19:42;;;;;;;0.20;0.20;;;;;;;16.85;59.73;101154.88;5126268;28;20024;-71
2022/08/29 05:22:07;;;;;;;0.20;0.20;;;;;;;16.85;59.09;101154.88;5126173;28;20495;-71
2022/08/29 05:24:36;;;;;;;0.20;0.20;;;;;;;16.85;58.81;101156.66;5107665;28;20023;-72
2022/08/29 05:27:09;;;;;;;0.30;0.30;;;;;;;16.87;59.45;101151.38;5107586;28;20378;-71
2022/08/29 05:29:42;;;;;;;0.20;0.20;;;;;;;17.04;58.83;101157.09;5126075;28;20022;-70
2022/08/29 05:32:09;;;;;;;1.85;1.75;;;;;;;17.16;58.65;101168.22;5107353;28;20028;-70
2022/08/29 05:34:37;;;;;;;0.30;0.30;;;;;;;17.15;58.32;101166.50;5125796;28;20027;-70
2022/08/29 05:37:05;;;;;;;0.30;0.30;;;;;;;17.35;59.06;101155.50;5108861;28;20020;-66
2022/08/29 05:39:31;;;;;;;0.30;0.30;;;;;;;17.69;59.07;101157.28;5130245;28;20332;-67
2022/08/29 05:41:57;;;;;;;0.30;0.30;;;;;;;18.15;59.25;101161.31;5129496;28;20031;-68
2022/08/29 05:44:23;;;;;;;0.30;0.30;;;;;;;18.76;59.13;101172.72;5130047;28;20028;-68
2022/08/29 05:46:48;;;;;;;0.30;0.30;;;;;;;19.12;56.58;101172.50;5130184;28;20048;-68
2022/08/29 05:49:14;;;;;;;0.30;0.30;;;;;;;19.36;55.62;101167.34;5130171;28;20024;-68
2022/08/29 05:51:39;;;;;;;0.30;0.30;;;;;;;19.16;53.92;101175.91;5130018;28;20027;-66
2022/08/29 05:54:05;;;;;;;0.30;0.30;;;;;;;18.81;54.52;101183.97;5129905;28;20072;-68
2022/08/29 05:56:31;;;;;;;0.30;0.30;;;;;;;18.61;54.44;101174.06;5130476;28;20084;-67
2022/08/29 05:58:57;;;;;;;0.20;0.20;;;;;;;18.76;54.60;101175.34;5129597;28;20027;-67
2022/08/29 06:01:47;;;;;;;0.28;0.28;;;;;;;18.93;54.50;101180.09;5129973;28;20072;-71
2022/08/29 06:04:13;;;;;;;0.20;0.20;;;;;;;19.26;54.19;101173.84;5112157;28;20383;-66
2022/08/29 06:06:39;;;;;;;0.30;0.30;;;;;;;19.43;52.73;101175.91;5128147;28;20028;-67
2022/08/29 06:09:05;;;;;;;0.30;0.30;;;;;;;19.68;53.17;101181.19;5128559;28;20062;-67
2022/08/29 06:11:32;;;;;;;0.20;0.20;;;;;;;20.19;53.99;101178.56;5129725;28;20080;-67
2022/08/29 06:13:59;;;;;;;0.20;0.20;;;;;;;20.59;51.94;101183.25;5111293;28;20045;-67
2022/08/29 06:16:26;;;;;;;0.20;0.20;;;;;;;20.78;52.46;101186.03;5129454;28;20035;-68
2022/08/29 06:18:52;;;;;;;0.20;0.20;;;;;;;20.99;49.38;101180.84;5111346;28;20118;-67
2022/08/29 06:21:17;;;;;;;0.40;0.40;;;;;;;20.83;49.61;101187.66;5129412;28;20024;-69
2022/08/29 06:23:44;;;;;;;0.22;0.22;;;;;;;21.03;50.56;101179.81;5129582;28;20084;-71
2022/08/29 06:26:10;;;;;;;0.20;0.20;;;;;;;20.97;48.48;101180.06;5129589;28;20032;-68
2022/08/29 06:28:37;;;;;;;0.50;0.50;;;;;;;20.78;48.20;101188.66;5129312;28;20049;-69
2022/08/29 06:31:21;;;;;;;0.50;0.50;;;;;;;20.52;47.19;101179.13;5129392;28;20463;-69
2022/08/29 06:33:50;;;;;;;0.20;0.20;;;;;;;20.31;48.31;101181.66;5129228;28;20144;-70
2022/08/29 06:36:15;;;;;;;0.20;0.20;;;;;;;20.28;47.50;101176.50;5129081;28;20028;-67
2022/08/29 06:38:41;;;;;;;0.20;0.20;;;;;;;20.28;47.60;101177.38;5111069;28;20026;-67
2022/08/29 06:41:10;;;;;;;0.20;0.20;;;;;;;20.30;47.92;101174.69;5129246;28;20047;-68
2022/08/29 06:43:36;;;;;;;0.20;0.20;;;;;;;20.46;48.09;101180.25;5129060;28;20100;-69
2022/08/29 06:46:01;;;;;;;0.20;0.20;;;;;;;20.58;47.92;101188.56;5128870;28;20040;-68
2022/08/29 06:48:27;;;;;;;0.20;0.20;;;;;;;20.73;47.98;101190.66;5128233;28;20462;-69
2022/08/29 06:50:53;;;;;;;0.20;0.20;;;;;;;20.82;46.44;101189.41;5128730;28;20028;-69
2022/08/29 06:53:19;;;;;;;0.20;0.20;;;;;;;20.48;45.75;101185.47;5129299;28;20112;-69
2022/08/29 06:55:45;;;;;;;0.20;0.20;;;;;;;20.36;46.28;101187.63;5129159;28;20063;-68
2022/08/29 06:58:11;;;;;;;0.20;0.20;;;;;;;20.39;46.25;101184.00;5128825;28;20501;-69
2022/08/29 07:00:39;;;;;;;0.20;0.20;;;;;;;20.36;46.57;101185.00;5128906;28;20024;-69
2022/08/29 07:03:05;;;;;;;0.20;0.20;;;;;;;20.73;45.69;101188.00;5128743;28;20027;-68
2022/08/29 07:05:32;;;;;;;0.20;0.20;;;;;;;20.86;45.20;101188.41;5128524;28;20027;-68
2022/08/29 07:07:57;;;;;;;0.20;0.20;;;;;;;21.02;45.28;101193.09;5128644;28;20118;-69
2022/08/29 07:10:23;;;;;;;0.20;0.20;;;;;;;21.11;44.64;101194.47;5128921;28;20102;-69
2022/08/29 07:12:49;;;;;;;0.20;0.20;;;;;;;21.13;43.97;101200.56;5128712;28;20023;-68
2022/08/29 07:15:14;;;;;;;0.20;0.20;;;;;;;21.01;43.65;101197.50;5128651;28;20027;-70
2022/08/29 07:17:40;;;;;;;0.20;0.20;;;;;;;20.90;44.79;101189.09;5128303;28;20110;-67
2022/08/29 07:20:07;;;;;;;0.20;0.20;;;;;;;21.07;44.01;101198.19;5128540;28;20015;-69
2022/08/29 07:22:33;;;;;;;0.20;0.20;;;;;;;21.16;43.11;101184.59;5128220;28;20030;-68
2022/08/29 07:24:59;;;;;;;0.20;0.20;;;;;;;21.15;43.22;101193.47;5128463;28;20020;-68
2022/08/29 07:27:24;;;;;;;0.20;0.20;;;;;;;20.96;43.46;101193.34;5128300;28;20106;-68
2022/08/29 07:29:49;;;;;;;0.20;0.20;;;;;;;21.14;43.56;101195.22;5128267;28;20031;-69
2022/08/29 07:32:15;;;;;;;0.20;0.20;;;;;;;20.84;41.80;101194.63;5128253;28;20031;-68
2022/08/29 07:34:40;;;;;;;0.20;0.20;;;;;;;20.50;42.36;101191.50;5128352;28;20079;-68
2022/08/29 07:37:05;;;;;;;0.30;0.30;;;;;;;20.41;43.06;101196.25;5127840;28;20020;-68
2022/08/29 07:39:31;;;;;;;0.20;0.20;;;;;;;20.58;42.78;101202.63;5128049;28;20474;-68
2022/08/29 07:41:57;;;;;;;0.20;0.20;;;;;;;20.61;42.89;101194.59;5128037;28;20024;-68
2022/08/29 07:44:24;;;;;;;0.20;0.20;;;;;;;20.70;42.27;101197.81;5127898;28;20079;-69
2022/08/29 07:46:57;;;;;;;0.20;0.20;;;;;;;20.72;42.17;101219.72;5109375;28;20054;-68
2022/08/29 07:49:27;;;;;;;0.20;0.20;;;;;;;20.69;42.37;101202.22;5127987;28;20026;-69
2022/08/29 07:51:54;;;;;;;0.20;0.20;;;;;;;20.80;43.23;101200.03;5127714;28;20015;-68
2022/08/29 07:54:20;;;;;;;0.20;0.20;;;;;;;21.25;42.47;101215.91;5128065;28;20020;-68
2022/08/29 07:56:48;;;;;;;0.20;0.20;;;;;;;21.51;41.95;101206.06;5127696;28;20046;-69
2022/08/29 07:59:14;;;;;;;0.20;0.20;;;;;;;21.72;42.21;101198.16;5127626;28;20028;-69
2022/08/29 08:01:40;;;;;;;0.20;0.20;;;;;;;22.07;41.86;101204.63;5108169;28;20037;-69
2022/08/29 08:04:06;;;;;;;0.20;0.20;;;;;;;22.28;40.51;101200.16;5127790;28;20023;-67
2022/08/29 08:06:33;;;;;;;0.20;0.20;;;;;;;22.20;40.29;101197.88;5108919;28;20035;-67
2022/08/29 08:08:59;;;;;;;0.20;0.20;;;;;;;21.81;40.49;101203.97;5109228;28;20069;-68
2022/08/29 08:11:25;;;;;;;0.20;0.20;;;;;;;21.78;39.64;101202.31;5127599;28;20047;-67
2022/08/29 08:13:52;;;;;;;0.20;0.20;;;;;;;21.39;39.51;101222.41;5127547;28;20019;-67
2022/08/29 08:16:20;;;;;;;0.20;0.20;;;;;;;21.34;39.98;101208.53;5127228;28;20028;-67
2022/08/29 08:18:45;;;;;;;0.20;0.20;;;;;;;21.28;38.58;101205.22;5127148;28;20015;-67
2022/08/29 08:21:11;;;;;;;0.30;0.30;;;;;;;21.10;38.38;101214.75;5127168;28;20040;-68
2022/08/29 08:23:37;;;;;;;0.20;0.20;;;;;;;21.00;37.56;101222.19;5127255;28;20047;-67
2022/08/29 08:26:04;;;;;;;0.20;0.20;;;;;;;20.80;38.08;101221.13;5127164;28;20034;-67
2022/08/29 08:28:29;;;;;;;0.28;0.28;;;;;;;20.78;38.06;101222.13;5127026;28;20051;-67
2022/08/29 08:30:56;;;;;;;0.20;0.20;;;;;;;20.81;38.56;101224.66;5127319;28;20034;-68
2022/08/29 08:33:22;;;;;;;0.20;0.20;;;;;;;20.88;38.10;101212.91;5126961;28;20453;-68
2022/08/29 08:35:48;;;;;;;0.20;0.20;;;;;;;21.14;38.44;101223.41;5126862;28;20051;-68
2022/08/29 08:38:15;;;;;;;0.20;0.20;;;;;;;21.60;38.52;101231.22;5126751;28;20106;-68
2022/08/29 08:40:57;;;;;;;0.20;0.20;;;;;;;21.99;37.37;101226.97;5127077;28;20039;-68
2022/08/29 08:43:26;;;;;;;;;;;;;;;22.51;36.89;101206.16;5127245;28;20023;-70
2022/08/29 08:45:52;;;;;;;0.20;0.20;;;;;;;22.51;36.25;101229.97;5126287;28;20012;-72
2022/08/29 08:48:27;;;;;;;0.20;0.20;;;;;;;22.45;36.06;101224.97;5108305;28;20083;-74
2022/08/29 08:51:09;;;;;;;0.20;0.20;;;;;;;22.68;37.26;101218.66;5126811;28;20031;-74
2022/08/29 08:53:42;;;;;;;0.20;0.20;;;;;;;22.72;35.10;101217.56;5126934;28;20099;-73
2022/08/29 08:56:37;;;;;;;0.20;0.20;;;;;;;22.15;36.37;101211.28;5126583;28;20027;-72
2022/08/29 08:59:15;;;;;;;0.20;0.20;;;;;;;21.99;36.46;101231.41;5126525;28;20019;-72
2022/08/29 09:01:57;;;;;;;0.20;0.20;;;;;;;21.84;36.62;101232.94;5126468;28;20054;-72
2022/08/29 09:04:35;;;;;;;0.30;0.30;;;;;;;21.57;36.86;101233.13;5126468;28;20079;-72
2022/08/29 09:07:15;;;;;;;0.20;0.20;;;;;;;21.60;36.66;101233.03;5126014;28;20023;-72
2022/08/29 09:09:47;;;;;;;0.20;0.20;;;;;;;21.64;35.84;101238.09;5126469;28;20023;-72
2022/08/29 09:12:15;;;;;;;0.20;0.20;;;;;;;21.16;36.78;101242.69;5126417;28;20043;-73
2022/08/29 09:15:06;;;;;;;0.20;0.20;;;;;;;21.26;37.21;101246.66;5126934;28;20020;-74
2022/08/29 09:17:45;;;;;;;0.20;0.20;;;;;;;21.40;37.28;101234.69;5126478;28;20087;-72
2022/08/29 09:20:21;;;;;;;0.30;0.30;;;;;;;21.89;37.58;101225.63;5126350;28;20030;-73
2022/08/29 09:23:01;;;;;;;0.20;0.20;;;;;;;22.54;37.24;101238.63;5126036;28;20062;-73
2022/08/29 09:25:29;;;;;;;0.30;0.30;;;;;;;22.17;37.31;101227.09;5126305;28;20034;-72
2022/08/29 09:27:57;;;;;;;0.20;0.20;;;;;;;22.10;37.86;101234.44;5126007;28;20026;-73
2022/08/29 09:30:28;;;;;;;0.20;0.20;;;;;;;22.08;37.79;101240.72;5126294;28;20053;-73
2022/08/29 09:33:04;;;;;;;0.20;0.20;;;;;;;22.50;37.54;101229.13;5126086;28;20026;-73
2022/08/29 09:35:44;;;;;;;0.20;0.20;;;;;;;23.05;36.55;101231.94;5125777;28;20090;-73
2022/08/29 09:38:16;;;;;;;0.20;0.20;;;;;;;23.60;35.21;101226.66;5125861;28;20023;-71
2022/08/29 09:41:00;;;;;;;0.20;0.20;;;;;;;23.39;35.05;101238.25;5107860;28;20417;-73
2022/08/29 09:43:43;;;;;;;0.20;0.20;;;;;;;23.35;34.85;101243.75;5125789;28;20043;-74
2022/08/29 09:46:17;;;;;;;0.20;0.20;;;;;;;22.94;36.24;101250.13;5125962;28;20111;-74
2022/08/29 09:48:43;;;;;;;0.20;0.20;;;;;;;22.73;36.20;101232.50;5125870;28;20020;-73
2022/08/29 09:51:10;;;;;;;0.25;0.25;;;;;;;21.84;36.81;101251.44;5125692;28;20127;-74
2022/08/29 09:53:35;;;;;;;0.20;0.20;;;;;;;21.67;37.17;101252.97;5125843;28;20031;-72
2022/08/29 09:56:07;;;;;;;0.20;0.20;;;;;;;21.51;37.49;101252.75;5125800;28;20024;-74
2022/08/29 09:58:35;;;;;;;1.00;0.93;;;;;;;21.84;37.02;101236.41;5125835;28;20103;-73
2022/08/29 10:01:01;;;;;;;0.20;0.20;;;;;;;22.21;36.29;101241.88;5125919;28;20388;-74
2022/08/29 10:03:29;;;;;;;0.52;0.52;;;;;;;22.31;35.30;101244.13;5125760;28;20038;-73
2022/08/29 10:06:06;;;;;;;0.20;0.20;;;;;;;22.67;35.44;101227.50;5125572;28;20241;-69
2022/08/29 10:08:37;;;;;;;0.38;0.38;;;;;;;22.69;34.62;101249.47;5125707;28;20024;-71
2022/08/29 10:11:20;;;;;;;0.20;0.20;;;;;;;22.78;35.34;101235.81;5125854;28;20020;-72
2022/08/29 10:13:53;;;;;;;0.20;0.20;;;;;;;23.02;34.45;101238.22;5125782;28;20045;-70
2022/08/29 10:16:21;;;;;;;0.30;0.30;;;;;;;23.03;33.97;101253.16;5125785;28;20356;-73
2022/08/29 10:18:57;;;;;;;0.20;0.20;;;;;;;23.11;33.82;101249.31;5125555;28;20061;-73
2022/08/29 10:21:49;;;;;;;0.77;0.77;;;;;;;23.31;34.95;101255.44;5125402;28;20019;-77
2022/08/29 10:24:20;;;;;;;;;;;;;;;23.59;33.09;101247.00;5127839;28;20023;-74
2022/08/29 10:27:04;;;;;;;0.20;0.20;;;;;;;23.44;33.00;101245.97;5129492;28;19966;-73
2022/08/29 10:29:38;;;;;;;0.20;0.20;;;;;;;23.64;34.00;101267.97;5129210;28;20111;-74
2022/08/29 10:32:08;;;;;;;0.25;0.25;;;;;;;23.69;33.37;101247.38;5129630;28;20525;-71
2022/08/29 10:34:55;;;;;;;0.63;0.63;;;;;;;23.96;33.70;101222.19;5129372;28;20062;-71
2022/08/29 10:37:32;;;;;;;0.20;0.20;;;;;;;23.79;32.83;101258.38;5127952;28;20072;-74
2022/08/29 10:40:07;;;;;;;0.20;0.20;;;;;;;23.93;33.04;101222.34;5129216;28;20024;-75
2022/08/29 10:42:35;;;;;;;0.20;0.20;;;;;;;23.67;32.07;101251.06;5129342;28;20035;-74
2022/08/29 10:45:04;;;;;;;0.20;0.20;;;;;;;23.51;32.66;101255.31;5101560;28;20135;-75
2022/08/29 10:47:39;;;;;;;0.20;0.20;;;;;;;23.51;32.17;101230.63;5088177;28;20103;-73
2022/08/29 10:50:48;;;;;;;0.20;0.20;;;;;;;23.19;32.50;101239.22;5088303;28;20024;-74
2022/08/29 10:53:24;;;;;;;0.20;0.20;;;;;;;22.90;32.97;101260.00;5045843;28;20090;-74
2022/08/29 10:56:00;;;;;;;0.20;0.20;;;;;;;22.88;33.23;101251.25;5045928;28;20049;-74
2022/08/29 10:58:31;;;;;;;0.20;0.20;;;;;;;23.07;33.31;101266.28;5045812;28;20164;-74
2022/08/29 11:01:11;;;;;;;0.20;0.20;;;;;;;22.98;33.26;101256.97;5045923;28;20032;-74
2022/08/29 11:04:19;;;;;;;0.20;0.20;;;;;;;22.79;33.54;101257.84;5045455;28;20037;-75
2022/08/29 11:06:50;;;;;;;0.20;0.20;;;;;;;22.63;33.42;101245.34;5045840;28;20030;-75
2022/08/29 11:09:24;;;;;;;0.20;0.20;;;;;;;22.43;33.92;101262.06;5045602;28;20029;-74
2022/08/29 11:12:18;;;;;;;0.20;0.20;;;;;;;22.40;33.68;101270.16;5045812;28;20114;-75
2022/08/29 11:15:02;;;;;;;0.20;0.20;;;;;;;22.83;33.50;101258.56;5045187;28;20041;-75
2022/08/29 11:17:36;;;;;;;0.28;0.28;;;;;;;23.51;33.10;101262.44;5045295;28;20061;-74
2022/08/29 11:20:16;;;;;;;0.22;0.22;;;;;;;23.63;32.46;101258.28;5045556;28;20033;-73
2022/08/29 11:22:41;;;;;;;0.20;0.20;;;;;;;23.75;32.82;101273.56;5045267;28;20025;-73
2022/08/29 11:25:08;;;;;;;0.20;0.20;;;;;;;23.98;32.88;101271.56;5045386;28;20654;-74
2022/08/29 11:27:39;;;;;;;0.20;0.20;;;;;;;23.14;31.66;101230.63;5045042;28;20029;-76
2022/08/29 11:30:11;;;;;;;0.20;0.20;;;;;;;21.54;33.67;101273.75;5052835;28;20032;-74
2022/08/29 11:32:46;;;;;;;0.20;0.20;;;;;;;20.41;35.74;101271.84;5086426;28;20029;-74
2022/08/29 11:35:36;;;;;;;0.20;0.20;;;;;;;19.71;37.50;101280.34;5087380;28;20096;-73
2022/08/29 11:38:38;;;;;;;0.20;0.20;;;;;;;19.18;38.57;101276.72;5087448;28;20028;-73
2022/08/29 11:41:21;;;;;;;0.22;0.22;;;;;;;18.82;39.65;101288.25;5087884;28;20042;-74